Kendall, MI (49062)

10:03 PM EST on February 10, 2016 (GMT -0500)
Gobles | | Change Station
CLOSE
Current Station
Personal Weather Station
Location: Gobles, MI
Elevation: 860 ft
Nearby Weather Stations
Active Advisory: Winter Storm Warning Active Notice: Local Storm Report

Elev 860 ft 42.40 °N, 85.82 °W | Updated 1 minute ago

Overcast
Overcast
8.8 °F
Feels Like 9 °F
N
0.0
Wind Variable Wind from SSW

Today
High -- | Low -- °F
--% Chance of Precip.
Yesterday
High -- | Low -- °F
Precip. -- in
Pressure 30.10 in
Visibility 10.0 miles
Clouds Mostly Cloudy 6000 ft
Windchill 9 °F
Dew Point 9 °F
Humidity 99%
Rainfall 0.00 in
Snow Depth Not available.
7:46 AM 6:08 PM
Waxing Crescent, 9% visible
METAR KAZO 110253Z 29005KT 10SM BKN060 M11/M16 A3005 RMK AO2 SLP193 T11061156 51018
Pressure 30.10 in
Visibility 10.0 miles
Clouds Mostly Cloudy 6000 ft
Windchill 9 °F
Dew Point 9 °F
Humidity 99%
Rainfall 0.00 in
Snow Depth Not available.
7:46 AM 6:08 PM
Waxing Crescent, 9% visible
METAR KAZO 110253Z 29005KT 10SM BKN060 M11/M16 A3005 RMK AO2 SLP193 T11061156 51018

10-Day Weather Forecast

Almanac

Astronomy

Feb. 10, 2016 Rise Set
Actual Time
Civil Twilight
Nautical Twilight
Astronomical Twilight
Moon
Length of Visible Light
Length of Day
Tomorrow will be .
, % of the Moon is Illuminated

Today's Extremes

State Highs State Lows

Community

WunderPhotos

Upload Photos

1,891,994 photos uploaded!

WunderBlog® & News

Nearby

Air Quality

  Air Quality AQ Index Pollutant
Not available.

Snow Depth

Station Depth Elevation

Earthquake Activity

City Distance Mag. Time & Date
Minimum magnitude displayed is 2.5.

Coastal Water Temperatures

Place Temperature

Stations

Nearby Weather Stations

Station Location Temp. Windchill Dew Point Humidity Wind Precip. Elev Updated Type
                   

Watches & Warnings

Winter Storm Warning
Issued: 9:54 PM EST Feb. 10, 2016 – National Weather Service

... Winter Storm Warning remains in effect until 10 am EST
Thursday...

Hazardous weather...

* snow showers overnight... diminishing early Thursday.

* Snow heavy at times... snow rates an inch per hour.

* Additional snow of 2 to 5 inches is expected tonight into
   Thursday morning. Storm totals 8 to 15 inches... with localized
   higher amounts.

Impacts...

* roads will be snow covered and slippery.

* Travel slowdowns and a risk for multiple vehicle pileups.

Precautionary/preparedness actions...

* the Michigan Department of Transportation reminds motorists
   to adjust speeds based on the conditions... and to take it
   slow in ice and snow.

* Weather preparedness information is available on line at
   www.Ready.Gov/winter and http://go.USA.Gov/5og.